Time;durP1;ratioP1;P1;durP2;ratioP2;P2;SDS_P1;SDS_P2;PMS_P1;PMS_P2;Temp;Humidity;BMP_temperature;BMP_pressure;BME280_temperature;BME280_humidity;BME280_pressure;Samples;Min_cycle;Max_cycle;Signal;HPM_P1;HPM_P2
2024/03/01 00:02:52;;;;;;;27.85;11.07;;;;;;;;;;6178259;28;20509;-79
2024/03/01 00:05:53;;;;;;;31.02;12.15;;;;;;;;;;6189084;28;20050;-79
2024/03/01 00:08:55;;;;;;;31.58;11.73;;;;;;;;;;6187492;28;20425;-80
2024/03/01 00:11:57;;;;;;;26.38;11.95;;;;;;;;;;6186169;28;20069;-78
2024/03/01 00:14:58;;;;;;;29.95;11.52;;;;;;;;;;6188454;28;20050;-77
2024/03/01 00:18:00;;;;;;;34.65;11.98;;;;;;;;;;6189561;28;20058;-81
2024/03/01 00:21:02;;;;;;;29.38;11.40;;;;;;;;;;6183836;28;20046;-80
2024/03/01 00:24:05;;;;;;;31.38;11.38;;;;;;;;;;6198312;28;20513;-81
2024/03/01 00:27:07;;;;;;;26.13;12.20;;;;;;;;;;6165436;28;20050;-80
2024/03/01 00:30:10;;;;;;;30.93;12.33;;;;;;;;;;6189483;28;20061;-80
2024/03/01 00:33:11;;;;;;;34.30;12.85;;;;;;;;;;6189110;28;20113;-80
2024/03/01 00:36:13;;;;;;;28.33;11.55;;;;;;;;;;6197852;28;20556;-80
2024/03/01 00:39:15;;;;;;;31.33;10.88;;;;;;;;;;6161075;28;20066;-80
2024/03/01 00:42:16;;;;;;;29.40;11.15;;;;;;;;;;6184663;28;20138;-79
2024/03/01 00:45:18;;;;;;;27.33;11.98;;;;;;;;;;6189914;28;20057;-80
2024/03/01 00:48:20;;;;;;;25.60;10.77;;;;;;;;;;6162086;28;20043;-78
2024/03/01 00:51:22;;;;;;;33.08;11.85;;;;;;;;;;6188058;28;20042;-80
2024/03/01 00:54:23;;;;;;;30.98;11.77;;;;;;;;;;6187570;28;20050;-78
2024/03/01 00:57:25;;;;;;;31.45;11.30;;;;;;;;;;6186130;28;20077;-77
2024/03/01 01:00:27;;;;;;;34.53;11.95;;;;;;;;;;6183571;28;20049;-79
2024/03/01 01:03:30;;;;;;;29.88;11.07;;;;;;;;;;6197713;28;20054;-77
2024/03/01 01:06:31;;;;;;;26.80;11.25;;;;;;;;;;6199044;28;20042;-77
2024/03/01 01:09:33;;;;;;;26.13;10.82;;;;;;;;;;6196075;28;20522;-77
2024/03/01 01:12:35;;;;;;;32.45;11.98;;;;;;;;;;6195517;28;20053;-77
2024/03/01 01:15:37;;;;;;;28.58;11.48;;;;;;;;;;6198143;28;20070;-79
2024/03/01 01:18:39;;;;;;;33.35;11.70;;;;;;;;;;6200484;28;20061;-78
2024/03/01 01:21:40;;;;;;;32.92;11.85;;;;;;;;;;6195629;28;20054;-78
2024/03/01 01:24:42;;;;;;;34.38;12.48;;;;;;;;;;6198023;28;20049;-77
2024/03/01 01:27:44;;;;;;;31.05;11.45;;;;;;;;;;6215031;28;20065;-77
2024/03/01 01:30:46;;;;;;;33.33;12.63;;;;;;;;;;6200739;28;20050;-78
2024/03/01 01:33:47;;;;;;;33.75;13.25;;;;;;;;;;6195374;28;20042;-79
2024/03/01 01:36:49;;;;;;;29.77;10.90;;;;;;;;;;6198607;28;20057;-77
2024/03/01 01:39:50;;;;;;;34.22;12.35;;;;;;;;;;6194324;28;20049;-77
2024/03/01 01:42:54;;;;;;;28.25;10.57;;;;;;;;;;6199676;28;20303;-79
2024/03/01 01:45:56;;;;;;;32.65;12.60;;;;;;;;;;6192781;28;20042;-78
2024/03/01 01:48:58;;;;;;;27.80;10.93;;;;;;;;;;6191092;28;20056;-77
2024/03/01 01:52:00;;;;;;;25.23;11.63;;;;;;;;;;6194129;28;20053;-79
2024/03/01 01:55:02;;;;;;;30.40;11.25;;;;;;;;;;6193804;28;20530;-77
2024/03/01 01:58:04;;;;;;;33.08;11.77;;;;;;;;;;6183193;28;20046;-78
2024/03/01 02:01:09;;;;;;;30.15;11.93;;;;;;;;;;6197063;28;20043;-77
2024/03/01 02:04:11;;;;;;;26.33;11.90;;;;;;;;;;6193946;28;20051;-77
2024/03/01 02:07:12;;;;;;;28.67;11.48;;;;;;;;;;6191517;28;20042;-81
2024/03/01 02:10:17;;;;;;;28.15;11.90;;;;;;;;;;6180299;28;20042;-79
2024/03/01 02:13:19;;;;;;;29.55;12.10;;;;;;;;;;6204288;28;20047;-80
2024/03/01 02:16:24;;;;;;;28.20;11.82;;;;;;;;;;6182194;28;20054;-77
2024/03/01 02:19:26;;;;;;;28.17;11.05;;;;;;;;;;6185677;28;20077;-79
2024/03/01 02:22:28;;;;;;;30.58;12.52;;;;;;;;;;6189254;28;20077;-78
2024/03/01 02:25:30;;;;;;;31.48;11.40;;;;;;;;;;6165551;28;20050;-77
2024/03/01 02:28:33;;;;;;;25.70;10.75;;;;;;;;;;6183015;28;20046;-79
2024/03/01 02:31:35;;;;;;;25.98;10.88;;;;;;;;;;6181332;28;20059;-77
2024/03/01 02:34:36;;;;;;;25.95;10.88;;;;;;;;;;6179331;28;20093;-80
2024/03/01 02:37:38;;;;;;;28.38;12.15;;;;;;;;;;6170842;28;20089;-80
2024/03/01 02:40:41;;;;;;;28.33;11.73;;;;;;;;;;6179195;28;20477;-80
2024/03/01 02:43:43;;;;;;;29.60;10.63;;;;;;;;;;6188459;28;20130;-81
2024/03/01 02:46:44;;;;;;;29.45;11.43;;;;;;;;;;6179056;28;20050;-79
2024/03/01 02:49:46;;;;;;;28.73;11.75;;;;;;;;;;6179264;28;20512;-79
2024/03/01 02:52:47;;;;;;;26.77;11.57;;;;;;;;;;6189238;28;20050;-76
2024/03/01 02:55:49;;;;;;;26.58;11.27;;;;;;;;;;6184290;28;20050;-78
2024/03/01 02:58:51;;;;;;;30.48;10.95;;;;;;;;;;6181713;28;20046;-77
2024/03/01 03:01:53;;;;;;;28.20;11.40;;;;;;;;;;6183208;28;20042;-76
2024/03/01 03:04:54;;;;;;;34.47;12.15;;;;;;;;;;6185942;28;20038;-77
2024/03/01 03:07:56;;;;;;;32.67;12.02;;;;;;;;;;6182227;28;20047;-77
2024/03/01 03:10:58;;;;;;;36.72;11.57;;;;;;;;;;6182230;28;20051;-78
2024/03/01 03:14:02;;;;;;;34.28;11.77;;;;;;;;;;6191943;28;20043;-78
2024/03/01 03:17:04;;;;;;;27.27;11.23;;;;;;;;;;6183142;28;20501;-78
2024/03/01 03:20:10;;;;;;;33.05;11.85;;;;;;;;;;6185985;28;20046;-80
2024/03/01 03:23:12;;;;;;;28.30;11.35;;;;;;;;;;6186970;28;20610;-80
2024/03/01 03:26:13;;;;;;;33.13;11.55;;;;;;;;;;6182774;28;20532;-78
2024/03/01 03:29:15;;;;;;;30.33;11.77;;;;;;;;;;6184202;28;20046;-79
2024/03/01 03:32:17;;;;;;;32.75;13.25;;;;;;;;;;6185091;28;20054;-79
2024/03/01 03:35:18;;;;;;;38.20;12.85;;;;;;;;;;6184594;28;20057;-80
2024/03/01 03:38:20;;;;;;;32.40;12.27;;;;;;;;;;6184502;28;20046;-80
2024/03/01 03:41:22;;;;;;;48.85;14.82;;;;;;;;;;6180986;28;20054;-76
2024/03/01 03:44:24;;;;;;;51.80;15.55;;;;;;;;;;6196095;28;20476;-77
2024/03/01 03:47:25;;;;;;;49.78;15.82;;;;;;;;;;6185336;28;20129;-79
2024/03/01 03:50:27;;;;;;;49.35;15.27;;;;;;;;;;6185474;28;21050;-79
2024/03/01 03:53:29;;;;;;;39.78;14.63;;;;;;;;;;6181591;28;20050;-76
2024/03/01 03:56:31;;;;;;;41.30;16.33;;;;;;;;;;6179621;28;20059;-77
2024/03/01 03:59:33;;;;;;;34.17;13.07;;;;;;;;;;6197393;28;20115;-77
2024/03/01 04:02:36;;;;;;;31.05;11.98;;;;;;;;;;6182007;28;20046;-80
2024/03/01 04:05:37;;;;;;;30.07;11.83;;;;;;;;;;6181809;28;20047;-79
2024/03/01 04:08:40;;;;;;;32.08;12.05;;;;;;;;;;6196678;28;20457;-79
2024/03/01 04:11:42;;;;;;;34.35;12.52;;;;;;;;;;6184019;28;20081;-78
2024/03/01 04:14:44;;;;;;;35.47;13.35;;;;;;;;;;6176098;28;20389;-80
2024/03/01 04:17:46;;;;;;;36.50;12.82;;;;;;;;;;6193898;28;20051;-79
2024/03/01 04:20:47;;;;;;;40.85;14.88;;;;;;;;;;6186529;28;20050;-80
2024/03/01 04:23:49;;;;;;;45.35;14.90;;;;;;;;;;6183567;28;20043;-77
2024/03/01 04:26:51;;;;;;;37.55;12.80;;;;;;;;;;6190863;28;20050;-77
2024/03/01 04:29:53;;;;;;;39.88;14.23;;;;;;;;;;6196446;28;20046;-80
2024/03/01 04:32:54;;;;;;;41.25;14.23;;;;;;;;;;6184581;28;20061;-79
2024/03/01 04:35:56;;;;;;;38.38;13.80;;;;;;;;;;6181471;28;20061;-79
2024/03/01 04:38:58;;;;;;;32.75;13.02;;;;;;;;;;6168526;28;20134;-80
2024/03/01 04:42:00;;;;;;;39.92;15.13;;;;;;;;;;6180918;28;20049;-80
2024/03/01 04:45:02;;;;;;;34.25;11.77;;;;;;;;;;6183246;28;20053;-79
2024/03/01 04:48:04;;;;;;;31.92;12.05;;;;;;;;;;6175624;28;20740;-79
2024/03/01 04:51:10;;;;;;;34.28;12.68;;;;;;;;;;6185813;28;20108;-79
2024/03/01 04:54:12;;;;;;;36.08;12.25;;;;;;;;;;6192409;28;20120;-81
2024/03/01 04:57:13;;;;;;;37.58;13.30;;;;;;;;;;6187051;28;20042;-79
2024/03/01 05:00:20;;;;;;;33.05;12.40;;;;;;;;;;6182502;28;20050;-79
2024/03/01 05:03:22;;;;;;;29.60;12.23;;;;;;;;;;6178233;28;20077;-80
2024/03/01 05:06:24;;;;;;;32.50;12.25;;;;;;;;;;6183715;28;20193;-80
2024/03/01 05:09:26;;;;;;;36.50;14.25;;;;;;;;;;6180466;28;20054;-79
2024/03/01 05:12:28;;;;;;;36.42;13.43;;;;;;;;;;6186721;28;20069;-80
2024/03/01 05:15:29;;;;;;;35.05;12.95;;;;;;;;;;6199442;28;20050;-76
2024/03/01 05:18:31;;;;;;;35.63;13.60;;;;;;;;;;6184796;28;20133;-79
2024/03/01 05:21:33;;;;;;;33.97;13.57;;;;;;;;;;6186370;28;20501;-79
2024/03/01 05:24:34;;;;;;;35.95;14.43;;;;;;;;;;6185835;28;20200;-79
2024/03/01 05:27:36;;;;;;;37.00;13.80;;;;;;;;;;6181194;28;20093;-78
2024/03/01 05:30:38;;;;;;;34.53;13.60;;;;;;;;;;6184920;28;20035;-80
2024/03/01 05:33:52;;;;;;;39.17;13.95;;;;;;;;;;6176611;28;20046;-79
2024/03/01 05:36:54;;;;;;;43.35;13.63;;;;;;;;;;6182186;28;20049;-79
2024/03/01 05:39:55;;;;;;;37.60;14.60;;;;;;;;;;6174088;28;20188;-80
2024/03/01 05:42:57;;;;;;;39.15;13.90;;;;;;;;;;6180982;28;20042;-81
2024/03/01 05:46:04;;;;;;;35.08;13.73;;;;;;;;;;6175844;28;20071;-78
2024/03/01 05:49:06;;;;;;;33.53;13.32;;;;;;;;;;6159179;28;20537;-78
2024/03/01 05:52:08;;;;;;;42.17;14.27;;;;;;;;;;6167966;28;20178;-79
2024/03/01 05:55:13;;;;;;;50.90;19.25;;;;;;;;;;6178665;28;20049;-80
2024/03/01 05:58:15;;;;;;;45.08;17.00;;;;;;;;;;6180688;28;20141;-81
2024/03/01 06:01:18;;;;;;;46.53;18.00;;;;;;;;;;6192416;28;20343;-81
2024/03/01 06:04:20;;;;;;;64.95;24.52;;;;;;;;;;6163544;28;20113;-77
2024/03/01 06:07:22;;;;;;;67.70;25.15;;;;;;;;;;6181483;28;20173;-76
2024/03/01 06:10:24;;;;;;;42.30;15.13;;;;;;;;;;6194076;28;20085;-76
2024/03/01 06:13:25;;;;;;;39.25;13.48;;;;;;;;;;6188427;28;20264;-79
2024/03/01 06:16:28;;;;;;;38.42;13.82;;;;;;;;;;6175823;28;20084;-80
2024/03/01 06:19:31;;;;;;;44.70;16.60;;;;;;;;;;6190464;28;20042;-80
2024/03/01 06:22:32;;;;;;;44.95;15.90;;;;;;;;;;6184030;28;20042;-80
2024/03/01 06:25:34;;;;;;;38.92;15.93;;;;;;;;;;6181064;28;20421;-76
2024/03/01 06:28:38;;;;;;;40.80;15.50;;;;;;;;;;6180746;28;20057;-77
2024/03/01 06:31:39;;;;;;;45.35;15.10;;;;;;;;;;6182962;28;20042;-81
2024/03/01 06:34:41;;;;;;;35.17;15.25;;;;;;;;;;6177484;28;20093;-79
2024/03/01 06:37:43;;;;;;;41.95;16.52;;;;;;;;;;6196040;28;20035;-80
2024/03/01 06:40:45;;;;;;;41.65;17.52;;;;;;;;;;6169651;28;20680;-79
2024/03/01 06:43:47;;;;;;;33.72;13.27;;;;;;;;;;6180281;28;20039;-80
2024/03/01 06:46:49;;;;;;;38.08;15.00;;;;;;;;;;6179360;28;20053;-79
2024/03/01 06:49:51;;;;;;;32.95;12.75;;;;;;;;;;6183247;28;20390;-79
2024/03/01 06:52:52;;;;;;;34.58;13.38;;;;;;;;;;6164855;28;20121;-79
2024/03/01 06:55:57;;;;;;;31.45;13.52;;;;;;;;;;6170066;28;20097;-79
2024/03/01 06:58:58;;;;;;;43.38;15.93;;;;;;;;;;6168258;28;20811;-78
2024/03/01 07:02:01;;;;;;;82.07;22.48;;;;;;;;;;6179151;28;20124;-78
2024/03/01 07:05:03;;;;;;;68.38;21.42;;;;;;;;;;6200025;28;20042;-80
2024/03/01 07:08:05;;;;;;;69.85;21.25;;;;;;;;;;6185430;28;20046;-79
2024/03/01 07:11:08;;;;;;;57.67;18.40;;;;;;;;;;6183285;28;20197;-79
2024/03/01 07:14:10;;;;;;;53.03;19.30;;;;;;;;;;6186755;28;20439;-80
2024/03/01 07:17:12;;;;;;;45.10;16.63;;;;;;;;;;6185711;28;20046;-78
2024/03/01 07:20:14;;;;;;;44.97;17.60;;;;;;;;;;6180689;28;20061;-81
2024/03/01 07:23:16;;;;;;;45.97;18.00;;;;;;;;;;6186744;28;20136;-81
2024/03/01 07:26:17;;;;;;;42.78;17.42;;;;;;;;;;6199795;28;20043;-80
2024/03/01 07:29:19;;;;;;;47.90;20.17;;;;;;;;;;6188458;28;20057;-79
2024/03/01 07:32:21;;;;;;;43.25;16.95;;;;;;;;;;6181112;28;20464;-78
2024/03/01 07:35:23;;;;;;;40.28;16.38;;;;;;;;;;6185253;28;20051;-81
2024/03/01 07:38:25;;;;;;;74.15;24.88;;;;;;;;;;6163079;28;20070;-81
2024/03/01 07:41:26;;;;;;;44.78;16.67;;;;;;;;;;6161114;28;20062;-81
2024/03/01 07:44:28;;;;;;;47.50;17.10;;;;;;;;;;6154461;28;20141;-79
2024/03/01 07:47:31;;;;;;;52.72;18.48;;;;;;;;;;6195015;28;20109;-82
2024/03/01 07:50:33;;;;;;;55.47;18.27;;;;;;;;;;6189190;28;20046;-82
2024/03/01 07:53:34;;;;;;;51.28;19.10;;;;;;;;;;6187543;28;20456;-80
2024/03/01 07:56:36;;;;;;;48.25;18.80;;;;;;;;;;6182639;28;20058;-78
2024/03/01 07:59:38;;;;;;;46.40;17.80;;;;;;;;;;6184849;28;20540;-80
2024/03/01 08:02:41;;;;;;;59.38;23.77;;;;;;;;;;6182666;28;20043;-82
2024/03/01 08:05:43;;;;;;;61.38;24.75;;;;;;;;;;6191346;28;20183;-82
2024/03/01 08:08:45;;;;;;;63.95;25.50;;;;;;;;;;6179572;28;20050;-81
2024/03/01 08:11:47;;;;;;;48.67;21.27;;;;;;;;;;6180424;28;20106;-81
2024/03/01 08:14:52;;;;;;;63.67;26.63;;;;;;;;;;6181137;28;20086;-81
2024/03/01 08:17:55;;;;;;;50.22;20.77;;;;;;;;;;6210749;28;20069;-79
2024/03/01 08:20:58;;;;;;;152.07;60.72;;;;;;;;;;6201900;28;20129;-81
2024/03/01 08:24:01;;;;;;;115.47;42.45;;;;;;;;;;6187442;28;20062;-80
2024/03/01 08:27:05;;;;;;;35.10;15.25;;;;;;;;;;6186972;28;20057;-83
2024/03/01 08:30:13;;;;;;;;;;;;;;;;;;6200820;28;20049;-79
2024/03/01 08:33:17;;;;;;;70.55;26.33;;;;;;;;;;6202074;28;19928;-79
2024/03/01 08:36:20;;;;;;;308.60;104.78;;;;;;;;;;6194422;28;20054;-80
2024/03/01 08:39:22;;;;;;;;;;;;;;;;;;6181309;28;20054;-80
2024/03/01 08:42:31;;;;;;;110.50;39.45;;;;;;;;;;6181605;28;20399;-79
2024/03/01 08:45:43;;;;;;;59.22;22.33;;;;;;;;;;6182196;28;20133;-79
2024/03/01 08:48:44;;;;;;;60.72;23.10;;;;;;;;;;6177618;28;20050;-81
2024/03/01 08:51:47;;;;;;;60.28;23.85;;;;;;;;;;6183262;28;20363;-81
2024/03/01 08:54:54;;;;;;;41.40;17.27;;;;;;;;;;6182703;28;20066;-82
2024/03/01 08:57:57;;;;;;;41.55;17.98;;;;;;;;;;6183823;28;20053;-81
2024/03/01 09:00:59;;;;;;;41.22;17.17;;;;;;;;;;6176670;28;20047;-84
2024/03/01 09:04:33;;;;;;;46.25;17.27;;;;;;;;;;6170915;28;20424;-80
2024/03/01 09:07:34;;;;;;;48.50;17.58;;;;;;;;;;6161006;28;20193;-83
2024/03/01 09:10:36;;;;;;;54.95;19.63;;;;;;;;;;6180427;28;20583;-82
2024/03/01 09:13:39;;;;;;;43.85;18.92;;;;;;;;;;6177464;28;20044;-82
2024/03/01 09:16:41;;;;;;;54.33;22.95;;;;;;;;;;6161768;28;20420;-83
2024/03/01 09:19:50;;;;;;;53.70;22.52;;;;;;;;;;6176643;28;20054;-83
2024/03/01 09:22:52;;;;;;;53.03;24.08;;;;;;;;;;6182724;28;20058;-83
2024/03/01 09:26:04;;;;;;;47.50;22.42;;;;;;;;;;6184737;28;20042;-81
2024/03/01 09:29:06;;;;;;;58.67;24.77;;;;;;;;;;6194223;28;20169;-83
2024/03/01 09:32:08;;;;;;;43.67;19.65;;;;;;;;;;6157243;28;20054;-82
2024/03/01 09:35:10;;;;;;;42.85;20.38;;;;;;;;;;6178975;28;20124;-82
2024/03/01 09:38:14;;;;;;;43.33;19.73;;;;;;;;;;6179498;28;20053;-82
2024/03/01 09:41:27;;;;;;;43.13;18.73;;;;;;;;;;6189144;28;20149;-83
2024/03/01 09:44:34;;;;;;;51.67;19.90;;;;;;;;;;6177322;28;20141;-83
2024/03/01 09:48:12;;;;;;;72.10;31.05;;;;;;;;;;6174053;28;20050;-83
2024/03/01 09:51:21;;;;;;;44.65;19.08;;;;;;;;;;6177904;28;20161;-82
2024/03/01 09:54:28;;;;;;;37.40;17.17;;;;;;;;;;6177062;28;20050;-84
2024/03/01 09:58:01;;;;;;;30.90;14.57;;;;;;;;;;6178788;28;20054;-83
2024/03/01 10:01:19;;;;;;;36.40;15.65;;;;;;;;;;6181026;28;20121;-82
2024/03/01 10:04:45;;;;;;;35.05;16.02;;;;;;;;;;6176507;28;20057;-84
2024/03/01 10:08:04;;;;;;;38.28;15.80;;;;;;;;;;6192786;28;20101;-82
2024/03/01 10:11:27;;;;;;;30.83;11.90;;;;;;;;;;6173474;28;20046;-83
2024/03/01 10:14:51;;;;;;;23.00;11.80;;;;;;;;;;6177206;28;20054;-83
2024/03/01 10:18:08;;;;;;;26.08;11.23;;;;;;;;;;6186047;28;20049;-83
2024/03/01 10:21:15;;;;;;;24.40;10.90;;;;;;;;;;6163096;28;20046;-82
2024/03/01 10:24:30;;;;;;;24.92;11.10;;;;;;;;;;6180821;28;20144;-82
2024/03/01 10:27:36;;;;;;;25.02;10.57;;;;;;;;;;6179351;28;20042;-81
2024/03/01 10:30:57;;;;;;;22.85;10.63;;;;;;;;;;6195500;28;20058;-84
2024/03/01 10:34:04;;;;;;;22.05;10.15;;;;;;;;;;6179765;28;20082;-82
2024/03/01 10:37:20;;;;;;;26.17;11.30;;;;;;;;;;6185143;28;20081;-83
2024/03/01 10:40:23;;;;;;;20.63;9.50;;;;;;;;;;6177246;28;20057;-82
2024/03/01 10:43:42;;;;;;;24.25;10.43;;;;;;;;;;6164666;28;20523;-83
2024/03/01 10:47:06;;;;;;;20.48;9.68;;;;;;;;;;6178785;28;20054;-81
2024/03/01 10:50:13;;;;;;;20.02;9.57;;;;;;;;;;6174030;28;20046;-83
2024/03/01 10:53:27;;;;;;;21.75;9.27;;;;;;;;;;6185753;28;20054;-83
2024/03/01 10:56:29;;;;;;;21.77;9.70;;;;;;;;;;6174003;28;20054;-84
2024/03/01 10:59:38;;;;;;;22.27;10.45;;;;;;;;;;6182470;28;20057;-82
2024/03/01 11:02:44;;;;;;;23.13;10.10;;;;;;;;;;6173155;28;20116;-80
2024/03/01 11:06:14;;;;;;;17.88;9.30;;;;;;;;;;6178725;28;20042;-84
2024/03/01 11:09:24;;;;;;;20.30;11.50;;;;;;;;;;6184582;28;20117;-82
2024/03/01 11:12:38;;;;;;;15.20;7.75;;;;;;;;;;6163808;28;20565;-82
2024/03/01 11:15:40;;;;;;;18.23;9.00;;;;;;;;;;6178005;28;20098;-82
2024/03/01 11:18:51;;;;;;;18.30;8.45;;;;;;;;;;6188222;28;20823;-80
2024/03/01 11:22:08;;;;;;;16.42;8.27;;;;;;;;;;6182905;28;20084;-83
2024/03/01 11:25:15;;;;;;;19.13;9.27;;;;;;;;;;6191365;28;20151;-83
2024/03/01 11:28:23;;;;;;;13.85;7.20;;;;;;;;;;6179333;28;20039;-81
2024/03/01 11:31:29;;;;;;;16.02;7.63;;;;;;;;;;6173545;28;20046;-82
2024/03/01 11:35:13;;;;;;;15.10;7.75;;;;;;;;;;6173776;28;20053;-83
2024/03/01 11:38:31;;;;;;;14.95;7.90;;;;;;;;;;6178242;28;20570;-82
2024/03/01 11:41:48;;;;;;;14.90;7.53;;;;;;;;;;6194017;28;20114;-83
2024/03/01 11:45:05;;;;;;;15.77;8.25;;;;;;;;;;6182094;28;20130;-81
2024/03/01 11:48:44;;;;;;;16.73;7.25;;;;;;;;;;6188863;28;20057;-81
2024/03/01 11:52:03;;;;;;;16.95;7.38;;;;;;;;;;6184988;28;20057;-80
2024/03/01 11:55:09;;;;;;;15.80;7.80;;;;;;;;;;6182946;28;20493;-83
2024/03/01 11:58:33;;;;;;;15.82;7.75;;;;;;;;;;6169915;28;20053;-82
2024/03/01 12:01:50;;;;;;;15.30;7.18;;;;;;;;;;6195979;28;20069;-83
2024/03/01 12:05:22;;;;;;;11.80;6.65;;;;;;;;;;6180197;28;20042;-80
2024/03/01 12:08:51;;;;;;;13.70;7.47;;;;;;;;;;6180156;28;20050;-83
2024/03/01 12:12:09;;;;;;;13.55;6.95;;;;;;;;;;6197616;28;20059;-79
2024/03/01 12:15:19;;;;;;;15.85;7.72;;;;;;;;;;6176114;28;20497;-83
2024/03/01 12:18:46;;;;;;;15.10;8.43;;;;;;;;;;6161479;28;20046;-86
2024/03/01 12:22:15;;;;;;;15.25;7.30;;;;;;;;;;6198151;28;20039;-81
2024/03/01 12:25:23;;;;;;;11.63;7.22;;;;;;;;;;6184096;28;20101;-85
2024/03/01 12:28:59;;;;;;;13.65;7.93;;;;;;;;;;6199339;28;20054;-81
2024/03/01 12:32:22;;;;;;;13.45;7.05;;;;;;;;;;6216580;28;20033;-82
2024/03/01 12:35:40;;;;;;;10.07;5.35;;;;;;;;;;6185163;28;20060;-84
2024/03/01 12:38:47;;;;;;;9.90;5.47;;;;;;;;;;6202662;28;20051;-83
2024/03/01 12:42:06;;;;;;;12.15;6.25;;;;;;;;;;6200056;28;20097;-84
2024/03/01 12:45:17;;;;;;;10.98;5.03;;;;;;;;;;6181821;28;20289;-84
2024/03/01 12:48:31;;;;;;;10.93;5.45;;;;;;;;;;6166368;28;20082;-82
2024/03/01 12:51:55;;;;;;;9.23;4.95;;;;;;;;;;6186197;28;20058;-84
2024/03/01 12:55:08;;;;;;;9.40;4.68;;;;;;;;;;6183307;28;22055;-77
2024/03/01 12:58:15;;;;;;;;;;;;;;;;;;6184751;28;20043;-84
2024/03/01 13:01:35;;;;;;;7.50;4.20;;;;;;;;;;6171481;28;19922;-83
2024/03/01 13:04:42;;;;;;;26.95;9.75;;;;;;;;;;6181938;28;20555;-83
2024/03/01 13:07:45;;;;;;;29.73;10.20;;;;;;;;;;6182900;28;20129;-83
2024/03/01 13:10:46;;;;;;;11.63;4.88;;;;;;;;;;6185228;28;20501;-84
2024/03/01 13:14:19;;;;;;;10.60;4.47;;;;;;;;;;6177992;28;20046;-83
2024/03/01 13:17:25;;;;;;;5.82;3.67;;;;;;;;;;6175712;28;20390;-84
2024/03/01 13:21:18;;;;;;;3.95;2.65;;;;;;;;;;6180854;28;20409;-83
2024/03/01 13:24:29;;;;;;;4.82;2.92;;;;;;;;;;6181719;28;20046;-84
2024/03/01 13:27:41;;;;;;;3.25;1.95;;;;;;;;;;6178318;28;20108;-83
2024/03/01 13:30:44;;;;;;;3.22;1.88;;;;;;;;;;6177933;28;20043;-83
2024/03/01 13:33:49;;;;;;;3.05;1.83;;;;;;;;;;6175657;28;20054;-83
2024/03/01 13:37:18;;;;;;;5.25;2.00;;;;;;;;;;6184118;28;20049;-83
2024/03/01 13:40:30;;;;;;;2.65;1.90;;;;;;;;;;6175231;28;20046;-84
2024/03/01 13:43:39;;;;;;;2.25;1.50;;;;;;;;;;6172057;28;20062;-84
2024/03/01 13:46:42;;;;;;;3.08;2.10;;;;;;;;;;6166827;28;20042;-84
2024/03/01 13:49:54;;;;;;;5.50;2.47;;;;;;;;;;6181451;28;20416;-82
2024/03/01 13:52:57;;;;;;;5.55;1.83;;;;;;;;;;6185794;28;20045;-83
2024/03/01 13:56:00;;;;;;;2.00;1.60;;;;;;;;;;6177254;28;20109;-82
2024/03/01 13:59:03;;;;;;;3.13;1.60;;;;;;;;;;6172095;28;20038;-82
2024/03/01 14:02:06;;;;;;;3.92;2.00;;;;;;;;;;6180491;28;20129;-81
2024/03/01 14:05:13;;;;;;;2.33;1.70;;;;;;;;;;6184200;28;20050;-83
2024/03/01 14:08:22;;;;;;;3.25;1.75;;;;;;;;;;6180429;28;20046;-82
2024/03/01 14:11:25;;;;;;;6.20;2.15;;;;;;;;;;6176804;28;20050;-83
2024/03/01 14:14:28;;;;;;;2.00;1.50;;;;;;;;;;6165027;28;20417;-83
2024/03/01 14:17:29;;;;;;;1.30;1.17;;;;;;;;;;6163944;28;20046;-83
2024/03/01 14:20:32;;;;;;;2.50;1.45;;;;;;;;;;6176119;28;20123;-82
2024/03/01 14:23:34;;;;;;;2.92;1.80;;;;;;;;;;6175524;28;20038;-79
2024/03/01 14:26:37;;;;;;;2.15;1.63;;;;;;;;;;6159483;28;20066;-82
2024/03/01 14:29:39;;;;;;;;;;;;;;;;;;6179632;28;20057;-81
2024/03/01 14:33:07;;;;;;;5.50;2.53;;;;;;;;;;6179786;28;19922;-84
2024/03/01 14:36:09;;;;;;;3.78;2.80;;;;;;;;;;6181747;28;20046;-82
2024/03/01 14:39:25;;;;;;;6.38;4.32;;;;;;;;;;6183024;28;20294;-83
2024/03/01 14:42:27;;;;;;;7.33;4.37;;;;;;;;;;6177740;28;20054;-83
2024/03/01 14:45:39;;;;;;;6.65;3.83;;;;;;;;;;6179072;28;20470;-82
2024/03/01 14:48:46;;;;;;;6.90;3.72;;;;;;;;;;6188101;28;20178;-80
2024/03/01 14:51:50;;;;;;;5.25;2.80;;;;;;;;;;6199116;28;20050;-81
2024/03/01 14:54:52;;;;;;;7.28;3.70;;;;;;;;;;6182676;28;20053;-82
2024/03/01 14:57:54;;;;;;;4.87;3.10;;;;;;;;;;6159532;28;20061;-83
2024/03/01 15:00:56;;;;;;;6.68;3.65;;;;;;;;;;6174410;28;20136;-83
2024/03/01 15:03:57;;;;;;;6.35;2.55;;;;;;;;;;6171380;28;20069;-84
2024/03/01 15:07:02;;;;;;;6.35;3.90;;;;;;;;;;6177368;28;20133;-83
2024/03/01 15:10:07;;;;;;;9.82;4.50;;;;;;;;;;6173093;28;20055;-81
2024/03/01 15:13:09;;;;;;;8.35;4.63;;;;;;;;;;6179483;28;20046;-80
2024/03/01 15:16:22;;;;;;;7.95;4.20;;;;;;;;;;6175423;28;20257;-80
2024/03/01 15:19:24;;;;;;;7.32;3.80;;;;;;;;;;6164754;28;20042;-82
2024/03/01 15:22:26;;;;;;;8.37;4.33;;;;;;;;;;6185915;28;20058;-80
2024/03/01 15:25:29;;;;;;;7.50;3.50;;;;;;;;;;6183260;28;20520;-82
2024/03/01 15:28:31;;;;;;;4.10;2.10;;;;;;;;;;6184023;28;20046;-83
2024/03/01 15:31:33;;;;;;;4.00;2.60;;;;;;;;;;6170120;28;20046;-84
2024/03/01 15:34:40;;;;;;;23.63;10.63;;;;;;;;;;6183356;28;20694;-84
2024/03/01 15:37:42;;;;;;;3.33;2.08;;;;;;;;;;6181307;28;20645;-83
2024/03/01 15:40:45;;;;;;;6.03;3.33;;;;;;;;;;6182117;28;20050;-83
2024/03/01 15:43:48;;;;;;;6.07;3.30;;;;;;;;;;6190581;28;20740;-82
2024/03/01 15:46:50;;;;;;;3.30;1.90;;;;;;;;;;6157218;28;20518;-84
2024/03/01 15:49:52;;;;;;;20.75;8.25;;;;;;;;;;6193196;28;20042;-82
2024/03/01 15:52:55;;;;;;;21.30;8.52;;;;;;;;;;6183699;28;20047;-85
2024/03/01 15:56:00;;;;;;;10.90;4.90;;;;;;;;;;6180584;28;20054;-81
2024/03/01 15:59:02;;;;;;;9.35;4.57;;;;;;;;;;6178388;28;20532;-85
2024/03/01 16:02:05;;;;;;;13.45;6.60;;;;;;;;;;6183190;28;20046;-78
2024/03/01 16:05:07;;;;;;;8.43;4.85;;;;;;;;;;6182939;28;20046;-79
2024/03/01 16:08:20;;;;;;;5.93;3.97;;;;;;;;;;6185766;28;20121;-80
2024/03/01 16:11:22;;;;;;;15.10;6.07;;;;;;;;;;6185113;28;20057;-80
2024/03/01 16:14:26;;;;;;;5.50;2.80;;;;;;;;;;6193734;28;20491;-82
2024/03/01 16:17:28;;;;;;;8.38;4.10;;;;;;;;;;6181813;28;20050;-83
2024/03/01 16:20:30;;;;;;;5.18;2.75;;;;;;;;;;6180867;28;20054;-80
2024/03/01 16:23:33;;;;;;;5.40;3.03;;;;;;;;;;6177970;28;20051;-83
2024/03/01 16:26:35;;;;;;;22.95;10.90;;;;;;;;;;6167312;28;20133;-83
2024/03/01 16:29:37;;;;;;;23.77;9.50;;;;;;;;;;6180408;28;20038;-80
2024/03/01 16:32:45;;;;;;;24.52;12.50;;;;;;;;;;6222361;28;20058;-79
2024/03/01 16:36:04;;;;;;;5.25;2.75;;;;;;;;;;6181957;28;20039;-83
2024/03/01 16:39:37;;;;;;;6.45;3.85;;;;;;;;;;6180026;28;20641;-78
2024/03/01 16:42:44;;;;;;;26.38;12.98;;;;;;;;;;6177047;28;20043;-81
2024/03/01 16:45:46;;;;;;;4.35;2.55;;;;;;;;;;6183143;28;20047;-80
2024/03/01 16:48:52;;;;;;;7.30;3.53;;;;;;;;;;6195399;28;20046;-82
2024/03/01 16:51:57;;;;;;;4.10;2.45;;;;;;;;;;6181442;28;20066;-81
2024/03/01 16:54:59;;;;;;;2.95;2.30;;;;;;;;;;6176314;28;20089;-81
2024/03/01 16:58:02;;;;;;;16.55;6.85;;;;;;;;;;6184754;28;20047;-79
2024/03/01 17:01:04;;;;;;;4.18;3.13;;;;;;;;;;6196902;28;20054;-80
2024/03/01 17:04:09;;;;;;;4.13;2.93;;;;;;;;;;6197822;28;20052;-80
2024/03/01 17:07:20;;;;;;;4.85;3.85;;;;;;;;;;6180775;28;20049;-82
2024/03/01 17:10:29;;;;;;;6.47;3.60;;;;;;;;;;6186818;28;20057;-82
2024/03/01 17:13:31;;;;;;;18.20;8.50;;;;;;;;;;6182250;28;20492;-79
2024/03/01 17:16:33;;;;;;;36.05;12.43;;;;;;;;;;6176883;28;20133;-81
2024/03/01 17:19:44;;;;;;;19.20;8.38;;;;;;;;;;6184649;28;20042;-82
2024/03/01 17:22:46;;;;;;;23.10;10.88;;;;;;;;;;6184716;28;20038;-81
2024/03/01 17:25:50;;;;;;;19.55;8.52;;;;;;;;;;6179148;28;20046;-79
2024/03/01 17:28:52;;;;;;;37.97;15.13;;;;;;;;;;6177300;28;20595;-78
2024/03/01 17:31:54;;;;;;;25.88;10.80;;;;;;;;;;6185297;28;20057;-82
2024/03/01 17:34:56;;;;;;;18.00;8.45;;;;;;;;;;6177664;28;20049;-82
2024/03/01 17:37:57;;;;;;;13.23;8.18;;;;;;;;;;6182205;28;20097;-82
2024/03/01 17:40:59;;;;;;;15.82;7.90;;;;;;;;;;6176487;28;20042;-80
2024/03/01 17:44:03;;;;;;;21.55;10.77;;;;;;;;;;6181121;28;20058;-79
2024/03/01 17:47:04;;;;;;;18.42;11.27;;;;;;;;;;6173056;28;20049;-79
2024/03/01 17:50:07;;;;;;;22.05;15.18;;;;;;;;;;6176221;28;20057;-77
2024/03/01 17:53:08;;;;;;;27.55;15.82;;;;;;;;;;6179872;28;20062;-78
2024/03/01 17:56:11;;;;;;;19.00;12.95;;;;;;;;;;6173807;28;20185;-78
2024/03/01 17:59:13;;;;;;;17.23;11.13;;;;;;;;;;6171358;28;20182;-78
2024/03/01 18:02:14;;;;;;;17.30;10.52;;;;;;;;;;6183005;28;20100;-77
2024/03/01 18:05:16;;;;;;;45.75;23.73;;;;;;;;;;6181588;28;20524;-78
2024/03/01 18:08:18;;;;;;;72.55;33.15;;;;;;;;;;6192254;28;20046;-77
2024/03/01 18:11:19;;;;;;;23.27;14.05;;;;;;;;;;6177078;28;20046;-80
2024/03/01 18:14:21;;;;;;;16.73;10.40;;;;;;;;;;6187658;28;20050;-79